sensor_id;sensor_type;location;lat;lon;timestamp;P1;durP1;ratioP1;P2;durP2;ratioP2
27305;SDS011;14792;50.886;6.468;2022-08-19T00:01:12;17.27;;;13.50;;
27305;SDS011;14792;50.886;6.468;2022-08-19T00:04:14;15.55;;;13.93;;
27305;SDS011;14792;50.886;6.468;2022-08-19T00:07:15;18.17;;;13.25;;
27305;SDS011;14792;50.886;6.468;2022-08-19T00:10:17;14.20;;;12.75;;
27305;SDS011;14792;50.886;6.468;2022-08-19T00:13:19;16.15;;;14.15;;
27305;SDS011;14792;50.886;6.468;2022-08-19T00:16:20;14.73;;;13.03;;
27305;SDS011;14792;50.886;6.468;2022-08-19T00:19:22;16.48;;;14.65;;
27305;SDS011;14792;50.886;6.468;2022-08-19T00:22:23;18.45;;;14.13;;
27305;SDS011;14792;50.886;6.468;2022-08-19T00:25:25;20.30;;;15.53;;
27305;SDS011;14792;50.886;6.468;2022-08-19T00:28:27;17.82;;;15.93;;
27305;SDS011;14792;50.886;6.468;2022-08-19T00:31:28;20.88;;;16.65;;
27305;SDS011;14792;50.886;6.468;2022-08-19T00:34:30;20.72;;;16.55;;
27305;SDS011;14792;50.886;6.468;2022-08-19T00:37:31;17.65;;;15.95;;
27305;SDS011;14792;50.886;6.468;2022-08-19T00:40:33;18.35;;;15.83;;
27305;SDS011;14792;50.886;6.468;2022-08-19T00:43:34;17.75;;;15.48;;
27305;SDS011;14792;50.886;6.468;2022-08-19T00:46:37;18.45;;;16.27;;
27305;SDS011;14792;50.886;6.468;2022-08-19T00:49:40;18.95;;;17.02;;
27305;SDS011;14792;50.886;6.468;2022-08-19T00:52:40;17.87;;;16.00;;
27305;SDS011;14792;50.886;6.468;2022-08-19T00:55:47;16.32;;;14.73;;
27305;SDS011;14792;50.886;6.468;2022-08-19T00:58:45;17.85;;;16.12;;
27305;SDS011;14792;50.886;6.468;2022-08-19T01:01:46;18.30;;;15.05;;
27305;SDS011;14792;50.886;6.468;2022-08-19T01:04:48;17.82;;;15.98;;
27305;SDS011;14792;50.886;6.468;2022-08-19T01:07:50;17.62;;;15.15;;
27305;SDS011;14792;50.886;6.468;2022-08-19T01:10:56;19.20;;;17.17;;
27305;SDS011;14792;50.886;6.468;2022-08-19T01:13:53;19.30;;;16.37;;
27305;SDS011;14792;50.886;6.468;2022-08-19T01:16:54;22.13;;;15.70;;
27305;SDS011;14792;50.886;6.468;2022-08-19T01:19:56;17.12;;;14.80;;
27305;SDS011;14792;50.886;6.468;2022-08-19T01:22:58;19.20;;;14.43;;
27305;SDS011;14792;50.886;6.468;2022-08-19T01:25:59;16.73;;;15.08;;
27305;SDS011;14792;50.886;6.468;2022-08-19T01:29:01;18.05;;;15.53;;
27305;SDS011;14792;50.886;6.468;2022-08-19T01:32:02;16.65;;;14.95;;
27305;SDS011;14792;50.886;6.468;2022-08-19T01:35:05;16.45;;;14.70;;
27305;SDS011;14792;50.886;6.468;2022-08-19T01:38:07;18.60;;;16.40;;
27305;SDS011;14792;50.886;6.468;2022-08-19T01:41:07;20.60;;;17.42;;
27305;SDS011;14792;50.886;6.468;2022-08-19T01:44:09;23.27;;;20.12;;
27305;SDS011;14792;50.886;6.468;2022-08-19T01:47:10;22.42;;;20.30;;
27305;SDS011;14792;50.886;6.468;2022-08-19T01:50:12;22.98;;;20.52;;
27305;SDS011;14792;50.886;6.468;2022-08-19T01:53:14;25.08;;;22.30;;
27305;SDS011;14792;50.886;6.468;2022-08-19T01:56:16;25.85;;;21.93;;
27305;SDS011;14792;50.886;6.468;2022-08-19T01:59:17;26.12;;;23.27;;
27305;SDS011;14792;50.886;6.468;2022-08-19T02:02:18;26.25;;;21.93;;
27305;SDS011;14792;50.886;6.468;2022-08-19T02:05:20;26.45;;;23.42;;
27305;SDS011;14792;50.886;6.468;2022-08-19T02:08:22;29.60;;;26.48;;
27305;SDS011;14792;50.886;6.468;2022-08-19T02:11:25;29.55;;;25.95;;
27305;SDS011;14792;50.886;6.468;2022-08-19T02:14:25;31.50;;;27.05;;
27305;SDS011;14792;50.886;6.468;2022-08-19T02:17:26;32.17;;;25.95;;
27305;SDS011;14792;50.886;6.468;2022-08-19T02:20:28;28.67;;;25.72;;
27305;SDS011;14792;50.886;6.468;2022-08-19T02:23:30;35.50;;;28.30;;
27305;SDS011;14792;50.886;6.468;2022-08-19T02:26:31;41.00;;;30.43;;
27305;SDS011;14792;50.886;6.468;2022-08-19T02:29:33;34.50;;;29.02;;
27305;SDS011;14792;50.886;6.468;2022-08-19T02:32:34;34.73;;;30.27;;
27305;SDS011;14792;50.886;6.468;2022-08-19T02:35:36;33.65;;;29.18;;
27305;SDS011;14792;50.886;6.468;2022-08-19T02:38:37;40.10;;;32.75;;
27305;SDS011;14792;50.886;6.468;2022-08-19T02:41:39;36.77;;;32.80;;
27305;SDS011;14792;50.886;6.468;2022-08-19T02:44:41;36.93;;;32.17;;
27305;SDS011;14792;50.886;6.468;2022-08-19T02:47:42;36.25;;;32.30;;
27305;SDS011;14792;50.886;6.468;2022-08-19T02:50:44;35.95;;;31.95;;
27305;SDS011;14792;50.886;6.468;2022-08-19T02:53:46;40.70;;;34.43;;
27305;SDS011;14792;50.886;6.468;2022-08-19T02:56:47;38.38;;;33.55;;
27305;SDS011;14792;50.886;6.468;2022-08-19T02:59:49;39.03;;;34.88;;
27305;SDS011;14792;50.886;6.468;2022-08-19T03:02:50;40.48;;;34.50;;
27305;SDS011;14792;50.886;6.468;2022-08-19T03:06:01;42.30;;;37.75;;
27305;SDS011;14792;50.886;6.468;2022-08-19T03:08:53;48.08;;;40.45;;
27305;SDS011;14792;50.886;6.468;2022-08-19T03:11:55;45.70;;;39.95;;
27305;SDS011;14792;50.886;6.468;2022-08-19T03:14:57;47.15;;;42.03;;
27305;SDS011;14792;50.886;6.468;2022-08-19T03:17:58;45.85;;;40.98;;
27305;SDS011;14792;50.886;6.468;2022-08-19T03:21:00;47.20;;;41.65;;
27305;SDS011;14792;50.886;6.468;2022-08-19T03:24:03;52.15;;;42.35;;
27305;SDS011;14792;50.886;6.468;2022-08-19T03:27:03;51.68;;;43.40;;
27305;SDS011;14792;50.886;6.468;2022-08-19T03:30:05;49.80;;;42.17;;
27305;SDS011;14792;50.886;6.468;2022-08-19T03:33:07;45.05;;;40.17;;
27305;SDS011;14792;50.886;6.468;2022-08-19T03:36:16;48.95;;;43.38;;
27305;SDS011;14792;50.886;6.468;2022-08-19T03:39:10;51.28;;;44.77;;
27305;SDS011;14792;50.886;6.468;2022-08-19T03:42:11;50.20;;;44.08;;
27305;SDS011;14792;50.886;6.468;2022-08-19T03:45:14;48.73;;;43.42;;
27305;SDS011;14792;50.886;6.468;2022-08-19T03:48:15;50.25;;;43.83;;
27305;SDS011;14792;50.886;6.468;2022-08-19T03:51:18;49.35;;;43.85;;
27305;SDS011;14792;50.886;6.468;2022-08-19T03:54:19;50.48;;;44.98;;
27305;SDS011;14792;50.886;6.468;2022-08-19T03:57:20;50.12;;;44.03;;
27305;SDS011;14792;50.886;6.468;2022-08-19T04:00:22;50.70;;;44.38;;
27305;SDS011;14792;50.886;6.468;2022-08-19T04:03:24;50.95;;;45.30;;
27305;SDS011;14792;50.886;6.468;2022-08-19T04:06:27;53.63;;;47.75;;
27305;SDS011;14792;50.886;6.468;2022-08-19T04:09:26;54.05;;;47.25;;
27305;SDS011;14792;50.886;6.468;2022-08-19T04:12:28;55.67;;;49.23;;
27305;SDS011;14792;50.886;6.468;2022-08-19T04:15:30;50.63;;;45.10;;
27305;SDS011;14792;50.886;6.468;2022-08-19T04:18:32;56.68;;;47.25;;
27305;SDS011;14792;50.886;6.468;2022-08-19T04:21:35;58.55;;;47.78;;
27305;SDS011;14792;50.886;6.468;2022-08-19T04:24:37;57.35;;;49.25;;
27305;SDS011;14792;50.886;6.468;2022-08-19T04:27:39;55.30;;;49.15;;
27305;SDS011;14792;50.886;6.468;2022-08-19T04:30:45;54.18;;;45.03;;
27305;SDS011;14792;50.886;6.468;2022-08-19T04:33:45;59.73;;;51.20;;
27305;SDS011;14792;50.886;6.468;2022-08-19T04:36:46;62.98;;;53.17;;
27305;SDS011;14792;50.886;6.468;2022-08-19T04:39:48;64.67;;;54.08;;
27305;SDS011;14792;50.886;6.468;2022-08-19T04:43:08;70.42;;;56.77;;
27305;SDS011;14792;50.886;6.468;2022-08-19T04:46:10;67.87;;;58.17;;
27305;SDS011;14792;50.886;6.468;2022-08-19T04:49:11;71.90;;;57.33;;
27305;SDS011;14792;50.886;6.468;2022-08-19T04:52:13;84.37;;;62.53;;
27305;SDS011;14792;50.886;6.468;2022-08-19T04:55:14;76.17;;;62.35;;
27305;SDS011;14792;50.886;6.468;2022-08-19T04:58:16;77.90;;;62.38;;
27305;SDS011;14792;50.886;6.468;2022-08-19T05:01:18;73.95;;;60.63;;
27305;SDS011;14792;50.886;6.468;2022-08-19T05:04:19;82.55;;;63.42;;
27305;SDS011;14792;50.886;6.468;2022-08-19T05:07:21;80.05;;;61.75;;
27305;SDS011;14792;50.886;6.468;2022-08-19T05:10:22;80.42;;;63.48;;
27305;SDS011;14792;50.886;6.468;2022-08-19T05:13:24;83.90;;;63.65;;
27305;SDS011;14792;50.886;6.468;2022-08-19T05:16:25;86.22;;;64.72;;
27305;SDS011;14792;50.886;6.468;2022-08-19T05:19:27;80.97;;;63.15;;
27305;SDS011;14792;50.886;6.468;2022-08-19T05:22:47;84.67;;;63.05;;
27305;SDS011;14792;50.886;6.468;2022-08-19T05:25:49;81.95;;;64.05;;
27305;SDS011;14792;50.886;6.468;2022-08-19T05:28:50;85.60;;;63.28;;
27305;SDS011;14792;50.886;6.468;2022-08-19T05:31:52;87.67;;;65.15;;
27305;SDS011;14792;50.886;6.468;2022-08-19T05:34:53;78.87;;;62.62;;
27305;SDS011;14792;50.886;6.468;2022-08-19T05:37:55;80.55;;;62.45;;
27305;SDS011;14792;50.886;6.468;2022-08-19T05:40:56;88.05;;;64.62;;
27305;SDS011;14792;50.886;6.468;2022-08-19T05:44:00;81.17;;;62.58;;
27305;SDS011;14792;50.886;6.468;2022-08-19T05:47:00;80.70;;;62.25;;
27305;SDS011;14792;50.886;6.468;2022-08-19T05:50:01;91.22;;;64.37;;
27305;SDS011;14792;50.886;6.468;2022-08-19T05:53:03;82.62;;;62.20;;
27305;SDS011;14792;50.886;6.468;2022-08-19T05:56:08;82.25;;;62.90;;
27305;SDS011;14792;50.886;6.468;2022-08-19T05:59:07;79.45;;;60.23;;
27305;SDS011;14792;50.886;6.468;2022-08-19T06:02:08;83.87;;;59.83;;
27305;SDS011;14792;50.886;6.468;2022-08-19T06:05:09;90.32;;;63.50;;
27305;SDS011;14792;50.886;6.468;2022-08-19T06:08:11;86.90;;;64.12;;
27305;SDS011;14792;50.886;6.468;2022-08-19T06:14:15;98.17;;;66.90;;
27305;SDS011;14792;50.886;6.468;2022-08-19T06:17:16;93.78;;;64.72;;
27305;SDS011;14792;50.886;6.468;2022-08-19T06:20:17;92.22;;;65.35;;
27305;SDS011;14792;50.886;6.468;2022-08-19T06:23:19;88.30;;;61.48;;
27305;SDS011;14792;50.886;6.468;2022-08-19T06:26:21;90.22;;;63.02;;
27305;SDS011;14792;50.886;6.468;2022-08-19T06:29:23;86.72;;;63.75;;
27305;SDS011;14792;50.886;6.468;2022-08-19T06:32:24;90.22;;;59.85;;
27305;SDS011;14792;50.886;6.468;2022-08-19T06:35:25;82.15;;;61.35;;
27305;SDS011;14792;50.886;6.468;2022-08-19T06:38:27;88.07;;;63.87;;
27305;SDS011;14792;50.886;6.468;2022-08-19T06:41:29;91.92;;;64.70;;
27305;SDS011;14792;50.886;6.468;2022-08-19T06:44:30;89.58;;;62.70;;
27305;SDS011;14792;50.886;6.468;2022-08-19T06:47:32;97.80;;;64.92;;
27305;SDS011;14792;50.886;6.468;2022-08-19T06:50:33;102.42;;;68.42;;
27305;SDS011;14792;50.886;6.468;2022-08-19T06:53:35;105.43;;;67.72;;
27305;SDS011;14792;50.886;6.468;2022-08-19T06:56:37;109.52;;;68.62;;
27305;SDS011;14792;50.886;6.468;2022-08-19T06:59:38;109.50;;;68.60;;
27305;SDS011;14792;50.886;6.468;2022-08-19T07:02:40;97.53;;;66.60;;
27305;SDS011;14792;50.886;6.468;2022-08-19T07:05:44;99.60;;;64.62;;
27305;SDS011;14792;50.886;6.468;2022-08-19T07:08:45;102.45;;;67.22;;
27305;SDS011;14792;50.886;6.468;2022-08-19T07:11:48;110.45;;;68.45;;
27305;SDS011;14792;50.886;6.468;2022-08-19T07:14:48;99.17;;;62.80;;
27305;SDS011;14792;50.886;6.468;2022-08-19T07:17:50;97.67;;;65.15;;
27305;SDS011;14792;50.886;6.468;2022-08-19T07:21:01;100.45;;;65.08;;
27305;SDS011;14792;50.886;6.468;2022-08-19T07:23:54;94.07;;;61.73;;
27305;SDS011;14792;50.886;6.468;2022-08-19T07:26:55;92.75;;;59.63;;
27305;SDS011;14792;50.886;6.468;2022-08-19T07:29:57;81.95;;;56.60;;
27305;SDS011;14792;50.886;6.468;2022-08-19T07:32:58;78.12;;;56.88;;
27305;SDS011;14792;50.886;6.468;2022-08-19T07:36:00;78.17;;;53.40;;
27305;SDS011;14792;50.886;6.468;2022-08-19T07:39:03;69.82;;;50.38;;
27305;SDS011;14792;50.886;6.468;2022-08-19T07:42:04;63.25;;;46.28;;
27305;SDS011;14792;50.886;6.468;2022-08-19T07:45:05;70.83;;;45.05;;
27305;SDS011;14792;50.886;6.468;2022-08-19T07:48:06;61.88;;;43.90;;
27305;SDS011;14792;50.886;6.468;2022-08-19T07:51:08;51.13;;;39.10;;
27305;SDS011;14792;50.886;6.468;2022-08-19T07:54:09;49.25;;;37.83;;
27305;SDS011;14792;50.886;6.468;2022-08-19T07:57:11;46.60;;;37.00;;
27305;SDS011;14792;50.886;6.468;2022-08-19T08:00:12;47.13;;;36.30;;
27305;SDS011;14792;50.886;6.468;2022-08-19T08:03:15;44.15;;;33.92;;
27305;SDS011;14792;50.886;6.468;2022-08-19T08:06:16;39.53;;;30.72;;
27305;SDS011;14792;50.886;6.468;2022-08-19T08:09:34;43.63;;;31.62;;
27305;SDS011;14792;50.886;6.468;2022-08-19T08:12:35;34.90;;;28.42;;
27305;SDS011;14792;50.886;6.468;2022-08-19T08:15:36;31.52;;;25.52;;
27305;SDS011;14792;50.886;6.468;2022-08-19T08:18:37;32.13;;;24.67;;
27305;SDS011;14792;50.886;6.468;2022-08-19T08:21:39;27.15;;;22.15;;
27305;SDS011;14792;50.886;6.468;2022-08-19T08:24:40;24.47;;;20.75;;
27305;SDS011;14792;50.886;6.468;2022-08-19T08:27:43;27.93;;;22.35;;
27305;SDS011;14792;50.886;6.468;2022-08-19T08:30:44;27.95;;;22.70;;
27305;SDS011;14792;50.886;6.468;2022-08-19T08:33:45;29.57;;;23.20;;
27305;SDS011;14792;50.886;6.468;2022-08-19T08:36:47;29.90;;;24.82;;
27305;SDS011;14792;50.886;6.468;2022-08-19T08:39:48;28.15;;;24.02;;
27305;SDS011;14792;50.886;6.468;2022-08-19T08:42:55;36.42;;;26.70;;
27305;SDS011;14792;50.886;6.468;2022-08-19T08:46:05;36.58;;;27.77;;
27305;SDS011;14792;50.886;6.468;2022-08-19T08:49:20;36.55;;;26.75;;
27305;SDS011;14792;50.886;6.468;2022-08-19T08:52:31;37.75;;;28.62;;
27305;SDS011;14792;50.886;6.468;2022-08-19T08:55:32;43.60;;;31.68;;
27305;SDS011;14792;50.886;6.468;2022-08-19T09:01:37;46.55;;;34.20;;
27305;SDS011;14792;50.886;6.468;2022-08-19T09:04:39;45.43;;;36.15;;
27305;SDS011;14792;50.886;6.468;2022-08-19T09:10:52;48.80;;;36.90;;
27305;SDS011;14792;50.886;6.468;2022-08-19T09:17:00;37.17;;;30.02;;
27305;SDS011;14792;50.886;6.468;2022-08-19T09:20:23;34.75;;;29.02;;
27305;SDS011;14792;50.886;6.468;2022-08-19T09:23:12;33.20;;;28.65;;
27305;SDS011;14792;50.886;6.468;2022-08-19T09:26:14;34.48;;;29.57;;
27305;SDS011;14792;50.886;6.468;2022-08-19T09:29:15;38.88;;;32.00;;
27305;SDS011;14792;50.886;6.468;2022-08-19T09:32:17;32.67;;;26.93;;
27305;SDS011;14792;50.886;6.468;2022-08-19T09:35:19;31.95;;;27.00;;
27305;SDS011;14792;50.886;6.468;2022-08-19T09:38:20;35.83;;;25.62;;
27305;SDS011;14792;50.886;6.468;2022-08-19T09:41:22;32.50;;;24.85;;
27305;SDS011;14792;50.886;6.468;2022-08-19T09:44:23;30.68;;;26.93;;
27305;SDS011;14792;50.886;6.468;2022-08-19T09:47:24;27.80;;;24.77;;
27305;SDS011;14792;50.886;6.468;2022-08-19T09:50:26;26.68;;;23.07;;
27305;SDS011;14792;50.886;6.468;2022-08-19T09:53:27;26.70;;;22.00;;
27305;SDS011;14792;50.886;6.468;2022-08-19T09:56:29;22.27;;;19.15;;
27305;SDS011;14792;50.886;6.468;2022-08-19T09:59:31;22.93;;;19.98;;
27305;SDS011;14792;50.886;6.468;2022-08-19T10:02:32;28.73;;;23.20;;
27305;SDS011;14792;50.886;6.468;2022-08-19T10:05:34;32.60;;;28.05;;
27305;SDS011;14792;50.886;6.468;2022-08-19T10:08:51;30.37;;;27.02;;
27305;SDS011;14792;50.886;6.468;2022-08-19T10:11:52;28.47;;;25.52;;
27305;SDS011;14792;50.886;6.468;2022-08-19T10:14:54;26.62;;;23.77;;
27305;SDS011;14792;50.886;6.468;2022-08-19T10:17:55;28.42;;;23.35;;
27305;SDS011;14792;50.886;6.468;2022-08-19T10:21:04;37.95;;;27.77;;
27305;SDS011;14792;50.886;6.468;2022-08-19T10:24:05;34.27;;;26.23;;
27305;SDS011;14792;50.886;6.468;2022-08-19T10:27:06;34.43;;;25.25;;
27305;SDS011;14792;50.886;6.468;2022-08-19T10:30:08;31.23;;;24.60;;
27305;SDS011;14792;50.886;6.468;2022-08-19T10:36:12;32.17;;;25.27;;
27305;SDS011;14792;50.886;6.468;2022-08-19T10:39:12;39.00;;;27.55;;
27305;SDS011;14792;50.886;6.468;2022-08-19T10:42:14;34.95;;;27.93;;
27305;SDS011;14792;50.886;6.468;2022-08-19T10:45:15;31.73;;;27.90;;
27305;SDS011;14792;50.886;6.468;2022-08-19T10:48:17;36.63;;;31.57;;
27305;SDS011;14792;50.886;6.468;2022-08-19T10:51:19;40.88;;;30.80;;
27305;SDS011;14792;50.886;6.468;2022-08-19T10:54:38;35.23;;;27.98;;
27305;SDS011;14792;50.886;6.468;2022-08-19T10:57:58;38.65;;;28.57;;
27305;SDS011;14792;50.886;6.468;2022-08-19T11:00:59;37.70;;;29.63;;
27305;SDS011;14792;50.886;6.468;2022-08-19T11:04:01;31.27;;;25.10;;
27305;SDS011;14792;50.886;6.468;2022-08-19T11:07:03;35.63;;;26.25;;
27305;SDS011;14792;50.886;6.468;2022-08-19T11:10:04;41.02;;;26.17;;
27305;SDS011;14792;50.886;6.468;2022-08-19T11:13:06;34.88;;;25.00;;
27305;SDS011;14792;50.886;6.468;2022-08-19T11:16:09;24.98;;;22.25;;
27305;SDS011;14792;50.886;6.468;2022-08-19T11:19:09;27.98;;;20.48;;
27305;SDS011;14792;50.886;6.468;2022-08-19T11:22:11;25.77;;;19.67;;
27305;SDS011;14792;50.886;6.468;2022-08-19T11:25:12;28.57;;;19.67;;
27305;SDS011;14792;50.886;6.468;2022-08-19T11:28:14;23.42;;;17.45;;
27305;SDS011;14792;50.886;6.468;2022-08-19T11:31:17;24.77;;;19.00;;
27305;SDS011;14792;50.886;6.468;2022-08-19T11:34:24;23.20;;;17.17;;
27305;SDS011;14792;50.886;6.468;2022-08-19T11:37:24;22.80;;;17.37;;
27305;SDS011;14792;50.886;6.468;2022-08-19T11:40:26;24.95;;;17.27;;
27305;SDS011;14792;50.886;6.468;2022-08-19T11:43:28;24.40;;;17.55;;
27305;SDS011;14792;50.886;6.468;2022-08-19T11:46:29;20.85;;;16.70;;
27305;SDS011;14792;50.886;6.468;2022-08-19T11:49:31;19.20;;;15.00;;
27305;SDS011;14792;50.886;6.468;2022-08-19T11:52:32;17.57;;;13.32;;
27305;SDS011;14792;50.886;6.468;2022-08-19T11:55:36;19.65;;;15.85;;
27305;SDS011;14792;50.886;6.468;2022-08-19T11:58:35;23.05;;;15.45;;
27305;SDS011;14792;50.886;6.468;2022-08-19T12:01:37;23.95;;;16.37;;
27305;SDS011;14792;50.886;6.468;2022-08-19T12:04:39;25.00;;;19.07;;
27305;SDS011;14792;50.886;6.468;2022-08-19T12:07:40;24.92;;;20.80;;
27305;SDS011;14792;50.886;6.468;2022-08-19T12:10:42;22.42;;;18.02;;
27305;SDS011;14792;50.886;6.468;2022-08-19T12:13:43;21.90;;;18.15;;
27305;SDS011;14792;50.886;6.468;2022-08-19T12:16:45;28.92;;;22.67;;
27305;SDS011;14792;50.886;6.468;2022-08-19T12:19:46;23.67;;;19.52;;
27305;SDS011;14792;50.886;6.468;2022-08-19T12:22:48;27.17;;;20.00;;
27305;SDS011;14792;50.886;6.468;2022-08-19T12:25:50;21.62;;;16.55;;
27305;SDS011;14792;50.886;6.468;2022-08-19T12:28:51;18.48;;;16.15;;
27305;SDS011;14792;50.886;6.468;2022-08-19T12:31:53;19.77;;;16.95;;
27305;SDS011;14792;50.886;6.468;2022-08-19T12:34:54;17.65;;;15.25;;
27305;SDS011;14792;50.886;6.468;2022-08-19T12:37:56;21.00;;;14.95;;
27305;SDS011;14792;50.886;6.468;2022-08-19T12:40:58;21.07;;;14.50;;
27305;SDS011;14792;50.886;6.468;2022-08-19T12:43:59;18.30;;;13.88;;
27305;SDS011;14792;50.886;6.468;2022-08-19T12:47:01;20.97;;;17.07;;
27305;SDS011;14792;50.886;6.468;2022-08-19T12:50:02;23.57;;;17.25;;
27305;SDS011;14792;50.886;6.468;2022-08-19T12:53:04;22.00;;;15.28;;
27305;SDS011;14792;50.886;6.468;2022-08-19T12:56:09;16.37;;;13.70;;
27305;SDS011;14792;50.886;6.468;2022-08-19T12:59:07;22.60;;;17.23;;
27305;SDS011;14792;50.886;6.468;2022-08-19T13:02:09;20.52;;;14.30;;
27305;SDS011;14792;50.886;6.468;2022-08-19T13:05:12;24.80;;;14.95;;
27305;SDS011;14792;50.886;6.468;2022-08-19T13:08:12;15.15;;;12.33;;
27305;SDS011;14792;50.886;6.468;2022-08-19T13:11:14;16.55;;;12.58;;
27305;SDS011;14792;50.886;6.468;2022-08-19T13:14:15;15.23;;;11.57;;
27305;SDS011;14792;50.886;6.468;2022-08-19T13:17:17;16.15;;;9.88;;
27305;SDS011;14792;50.886;6.468;2022-08-19T13:20:19;14.93;;;9.45;;
27305;SDS011;14792;50.886;6.468;2022-08-19T13:23:20;14.20;;;8.95;;
27305;SDS011;14792;50.886;6.468;2022-08-19T13:26:21;11.22;;;7.62;;
27305;SDS011;14792;50.886;6.468;2022-08-19T13:29:23;10.72;;;7.12;;
27305;SDS011;14792;50.886;6.468;2022-08-19T13:32:43;12.23;;;6.70;;
27305;SDS011;14792;50.886;6.468;2022-08-19T13:36:03;9.28;;;5.62;;
27305;SDS011;14792;50.886;6.468;2022-08-19T13:39:05;10.88;;;5.15;;
27305;SDS011;14792;50.886;6.468;2022-08-19T13:42:06;5.70;;;3.67;;
27305;SDS011;14792;50.886;6.468;2022-08-19T13:45:08;6.87;;;4.20;;
27305;SDS011;14792;50.886;6.468;2022-08-19T13:48:09;7.65;;;4.00;;
27305;SDS011;14792;50.886;6.468;2022-08-19T13:51:11;5.03;;;3.50;;
27305;SDS011;14792;50.886;6.468;2022-08-19T13:54:12;8.43;;;3.90;;
27305;SDS011;14792;50.886;6.468;2022-08-19T13:57:14;10.20;;;3.50;;
27305;SDS011;14792;50.886;6.468;2022-08-19T14:00:16;7.10;;;3.25;;
27305;SDS011;14792;50.886;6.468;2022-08-19T14:03:17;6.78;;;3.50;;
27305;SDS011;14792;50.886;6.468;2022-08-19T14:06:19;5.22;;;2.95;;
27305;SDS011;14792;50.886;6.468;2022-08-19T14:09:20;5.75;;;3.30;;
27305;SDS011;14792;50.886;6.468;2022-08-19T14:12:22;11.40;;;4.08;;
27305;SDS011;14792;50.886;6.468;2022-08-19T14:15:24;6.55;;;3.67;;
27305;SDS011;14792;50.886;6.468;2022-08-19T14:18:25;5.97;;;3.80;;
27305;SDS011;14792;50.886;6.468;2022-08-19T14:21:27;9.10;;;3.90;;
27305;SDS011;14792;50.886;6.468;2022-08-19T14:24:28;8.30;;;3.80;;
27305;SDS011;14792;50.886;6.468;2022-08-19T14:27:32;4.30;;;2.72;;
27305;SDS011;14792;50.886;6.468;2022-08-19T14:30:33;7.47;;;3.20;;
27305;SDS011;14792;50.886;6.468;2022-08-19T14:33:33;6.50;;;2.90;;
27305;SDS011;14792;50.886;6.468;2022-08-19T14:36:35;6.97;;;3.30;;
27305;SDS011;14792;50.886;6.468;2022-08-19T14:39:36;7.10;;;3.37;;
27305;SDS011;14792;50.886;6.468;2022-08-19T14:42:40;7.62;;;3.10;;
27305;SDS011;14792;50.886;6.468;2022-08-19T14:45:42;9.43;;;2.98;;
27305;SDS011;14792;50.886;6.468;2022-08-19T14:48:44;11.43;;;3.40;;
27305;SDS011;14792;50.886;6.468;2022-08-19T14:51:45;7.17;;;2.80;;
27305;SDS011;14792;50.886;6.468;2022-08-19T14:54:47;4.40;;;2.52;;
27305;SDS011;14792;50.886;6.468;2022-08-19T14:57:48;6.62;;;2.47;;
27305;SDS011;14792;50.886;6.468;2022-08-19T15:00:50;6.47;;;2.20;;
27305;SDS011;14792;50.886;6.468;2022-08-19T15:03:52;4.15;;;1.80;;
27305;SDS011;14792;50.886;6.468;2022-08-19T15:06:56;3.83;;;1.95;;
27305;SDS011;14792;50.886;6.468;2022-08-19T15:09:57;3.20;;;2.02;;
27305;SDS011;14792;50.886;6.468;2022-08-19T15:12:59;3.75;;;2.12;;
27305;SDS011;14792;50.886;6.468;2022-08-19T15:16:01;4.17;;;1.82;;
27305;SDS011;14792;50.886;6.468;2022-08-19T15:19:02;3.60;;;2.17;;
27305;SDS011;14792;50.886;6.468;2022-08-19T15:22:04;4.42;;;1.60;;
27305;SDS011;14792;50.886;6.468;2022-08-19T15:25:06;5.65;;;2.00;;
27305;SDS011;14792;50.886;6.468;2022-08-19T15:28:07;6.30;;;2.08;;
27305;SDS011;14792;50.886;6.468;2022-08-19T15:31:09;5.62;;;2.20;;
27305;SDS011;14792;50.886;6.468;2022-08-19T15:34:10;5.47;;;2.10;;
27305;SDS011;14792;50.886;6.468;2022-08-19T15:37:12;3.75;;;2.17;;
27305;SDS011;14792;50.886;6.468;2022-08-19T15:40:13;3.72;;;2.22;;
27305;SDS011;14792;50.886;6.468;2022-08-19T15:43:16;5.40;;;1.90;;
27305;SDS011;14792;50.886;6.468;2022-08-19T15:46:18;4.10;;;2.02;;
27305;SDS011;14792;50.886;6.468;2022-08-19T15:49:19;6.83;;;2.00;;
27305;SDS011;14792;50.886;6.468;2022-08-19T15:52:20;2.30;;;1.52;;
27305;SDS011;14792;50.886;6.468;2022-08-19T15:55:25;6.53;;;2.10;;
27305;SDS011;14792;50.886;6.468;2022-08-19T15:58:23;3.95;;;2.25;;
27305;SDS011;14792;50.886;6.468;2022-08-19T16:01:43;4.90;;;2.52;;
27305;SDS011;14792;50.886;6.468;2022-08-19T16:05:04;3.77;;;2.00;;
27305;SDS011;14792;50.886;6.468;2022-08-19T16:08:23;5.10;;;2.30;;
27305;SDS011;14792;50.886;6.468;2022-08-19T16:11:25;7.33;;;2.42;;
27305;SDS011;14792;50.886;6.468;2022-08-19T16:14:26;5.17;;;2.37;;
27305;SDS011;14792;50.886;6.468;2022-08-19T16:17:27;8.98;;;2.70;;
27305;SDS011;14792;50.886;6.468;2022-08-19T16:20:29;5.90;;;2.35;;
27305;SDS011;14792;50.886;6.468;2022-08-19T16:23:31;4.97;;;2.85;;
27305;SDS011;14792;50.886;6.468;2022-08-19T16:26:32;5.83;;;2.90;;
27305;SDS011;14792;50.886;6.468;2022-08-19T16:29:34;4.30;;;2.37;;
27305;SDS011;14792;50.886;6.468;2022-08-19T16:32:35;5.28;;;2.70;;
27305;SDS011;14792;50.886;6.468;2022-08-19T16:35:37;3.33;;;2.30;;
27305;SDS011;14792;50.886;6.468;2022-08-19T16:38:39;5.58;;;2.27;;
27305;SDS011;14792;50.886;6.468;2022-08-19T16:41:41;2.98;;;2.05;;
27305;SDS011;14792;50.886;6.468;2022-08-19T16:44:43;4.95;;;2.42;;
27305;SDS011;14792;50.886;6.468;2022-08-19T16:47:43;6.58;;;2.12;;
27305;SDS011;14792;50.886;6.468;2022-08-19T16:50:45;5.00;;;2.00;;
27305;SDS011;14792;50.886;6.468;2022-08-19T16:53:47;4.87;;;2.67;;
27305;SDS011;14792;50.886;6.468;2022-08-19T16:56:48;1.87;;;1.67;;
27305;SDS011;14792;50.886;6.468;2022-08-19T16:59:50;2.67;;;1.75;;
27305;SDS011;14792;50.886;6.468;2022-08-19T17:02:51;2.98;;;1.90;;
27305;SDS011;14792;50.886;6.468;2022-08-19T17:05:54;3.85;;;1.70;;
27305;SDS011;14792;50.886;6.468;2022-08-19T17:08:55;6.08;;;2.40;;
27305;SDS011;14792;50.886;6.468;2022-08-19T17:11:56;3.05;;;2.00;;
27305;SDS011;14792;50.886;6.468;2022-08-19T17:15:00;5.35;;;2.15;;
27305;SDS011;14792;50.886;6.468;2022-08-19T17:18:02;4.78;;;1.95;;
27305;SDS011;14792;50.886;6.468;2022-08-19T17:21:03;6.00;;;1.95;;
27305;SDS011;14792;50.886;6.468;2022-08-19T17:24:05;4.30;;;2.10;;
27305;SDS011;14792;50.886;6.468;2022-08-19T17:27:06;3.98;;;1.92;;
27305;SDS011;14792;50.886;6.468;2022-08-19T17:30:08;3.10;;;1.90;;
27305;SDS011;14792;50.886;6.468;2022-08-19T17:33:10;4.45;;;1.90;;
27305;SDS011;14792;50.886;6.468;2022-08-19T17:36:11;5.97;;;2.45;;
27305;SDS011;14792;50.886;6.468;2022-08-19T17:39:13;4.35;;;2.20;;
27305;SDS011;14792;50.886;6.468;2022-08-19T17:42:14;4.90;;;2.98;;
27305;SDS011;14792;50.886;6.468;2022-08-19T17:45:16;3.95;;;2.60;;
27305;SDS011;14792;50.886;6.468;2022-08-19T17:48:17;3.55;;;2.90;;
27305;SDS011;14792;50.886;6.468;2022-08-19T17:54:33;8.28;;;3.00;;
27305;SDS011;14792;50.886;6.468;2022-08-19T17:57:34;3.30;;;2.83;;
27305;SDS011;14792;50.886;6.468;2022-08-19T18:00:36;4.80;;;2.87;;
27305;SDS011;14792;50.886;6.468;2022-08-19T18:03:38;4.42;;;3.45;;
27305;SDS011;14792;50.886;6.468;2022-08-19T18:06:39;3.65;;;3.27;;
27305;SDS011;14792;50.886;6.468;2022-08-19T18:09:40;6.70;;;3.60;;
27305;SDS011;14792;50.886;6.468;2022-08-19T18:12:42;4.15;;;3.60;;